sensor_id;sensor_type;location;lat;lon;timestamp;temperature;humidity
13203;DHT22;6666;51.626;7.530;2023-08-08T00:00:47;14.10;99.90
13203;DHT22;6666;51.626;7.530;2023-08-08T00:03:15;14.10;99.90
13203;DHT22;6666;51.626;7.530;2023-08-08T00:05:44;14.00;99.90
13203;DHT22;6666;51.626;7.530;2023-08-08T00:08:12;14.00;99.90
13203;DHT22;6666;51.626;7.530;2023-08-08T00:10:41;14.00;99.90
13203;DHT22;6666;51.626;7.530;2023-08-08T00:13:09;14.00;99.90
13203;DHT22;6666;51.626;7.530;2023-08-08T00:15:38;14.00;99.90
13203;DHT22;6666;51.626;7.530;2023-08-08T00:18:06;13.90;99.90
13203;DHT22;6666;51.626;7.530;2023-08-08T00:20:34;13.90;99.90
13203;DHT22;6666;51.626;7.530;2023-08-08T00:23:03;13.90;99.90
13203;DHT22;6666;51.626;7.530;2023-08-08T00:25:31;13.90;99.90
13203;DHT22;6666;51.626;7.530;2023-08-08T00:28:00;13.90;99.90
13203;DHT22;6666;51.626;7.530;2023-08-08T00:30:28;13.90;99.90
13203;DHT22;6666;51.626;7.530;2023-08-08T00:32:57;13.90;99.90
13203;DHT22;6666;51.626;7.530;2023-08-08T00:35:25;13.90;99.90
13203;DHT22;6666;51.626;7.530;2023-08-08T00:37:53;13.90;99.90
13203;DHT22;6666;51.626;7.530;2023-08-08T00:40:21;14.00;99.90
13203;DHT22;6666;51.626;7.530;2023-08-08T00:42:49;14.00;99.90
13203;DHT22;6666;51.626;7.530;2023-08-08T00:45:19;13.90;99.90
13203;DHT22;6666;51.626;7.530;2023-08-08T00:47:48;13.90;99.90
13203;DHT22;6666;51.626;7.530;2023-08-08T00:50:16;13.90;99.90
13203;DHT22;6666;51.626;7.530;2023-08-08T00:52:45;13.90;99.90
13203;DHT22;6666;51.626;7.530;2023-08-08T00:55:16;14.00;99.90
13203;DHT22;6666;51.626;7.530;2023-08-08T00:57:44;13.90;99.90
13203;DHT22;6666;51.626;7.530;2023-08-08T01:00:13;13.90;99.90
13203;DHT22;6666;51.626;7.530;2023-08-08T01:02:43;13.90;99.90
13203;DHT22;6666;51.626;7.530;2023-08-08T01:05:11;14.00;99.90
13203;DHT22;6666;51.626;7.530;2023-08-08T01:07:45;13.90;99.90
13203;DHT22;6666;51.626;7.530;2023-08-08T01:10:18;13.90;99.90
13203;DHT22;6666;51.626;7.530;2023-08-08T01:12:50;13.90;99.90
13203;DHT22;6666;51.626;7.530;2023-08-08T01:15:24;13.90;99.90
13203;DHT22;6666;51.626;7.530;2023-08-08T01:18:00;13.90;99.90
13203;DHT22;6666;51.626;7.530;2023-08-08T01:20:29;13.90;99.90
13203;DHT22;6666;51.626;7.530;2023-08-08T01:25:48;13.80;99.90
13203;DHT22;6666;51.626;7.530;2023-08-08T01:28:20;13.80;99.90
13203;DHT22;6666;51.626;7.530;2023-08-08T01:30:49;13.80;99.90
13203;DHT22;6666;51.626;7.530;2023-08-08T01:33:17;13.80;99.90
13203;DHT22;6666;51.626;7.530;2023-08-08T01:35:50;13.80;99.90
13203;DHT22;6666;51.626;7.530;2023-08-08T01:38:25;13.90;99.90
13203;DHT22;6666;51.626;7.530;2023-08-08T01:40:56;13.80;99.90
13203;DHT22;6666;51.626;7.530;2023-08-08T01:43:25;13.80;99.90
13203;DHT22;6666;51.626;7.530;2023-08-08T01:45:54;13.90;99.90
13203;DHT22;6666;51.626;7.530;2023-08-08T01:48:23;13.90;99.90
13203;DHT22;6666;51.626;7.530;2023-08-08T01:50:51;13.90;99.90
13203;DHT22;6666;51.626;7.530;2023-08-08T01:53:19;13.90;99.90
13203;DHT22;6666;51.626;7.530;2023-08-08T01:55:48;13.90;99.90
13203;DHT22;6666;51.626;7.530;2023-08-08T01:58:17;13.90;99.90
13203;DHT22;6666;51.626;7.530;2023-08-08T02:00:45;13.90;99.90
13203;DHT22;6666;51.626;7.530;2023-08-08T02:03:14;13.90;99.90
13203;DHT22;6666;51.626;7.530;2023-08-08T02:05:42;13.90;99.90
13203;DHT22;6666;51.626;7.530;2023-08-08T02:08:10;13.90;99.90
13203;DHT22;6666;51.626;7.530;2023-08-08T02:10:39;13.90;99.90
13203;DHT22;6666;51.626;7.530;2023-08-08T02:13:07;13.90;99.90
13203;DHT22;6666;51.626;7.530;2023-08-08T02:15:37;13.80;99.90
13203;DHT22;6666;51.626;7.530;2023-08-08T02:18:06;13.80;99.90
13203;DHT22;6666;51.626;7.530;2023-08-08T02:20:36;13.80;99.90
13203;DHT22;6666;51.626;7.530;2023-08-08T02:23:04;13.80;99.90
13203;DHT22;6666;51.626;7.530;2023-08-08T02:25:32;13.80;99.90
13203;DHT22;6666;51.626;7.530;2023-08-08T02:28:00;13.80;99.90
13203;DHT22;6666;51.626;7.530;2023-08-08T02:30:29;13.80;99.90
13203;DHT22;6666;51.626;7.530;2023-08-08T02:32:58;13.80;99.90
13203;DHT22;6666;51.626;7.530;2023-08-08T02:35:26;13.70;99.90
13203;DHT22;6666;51.626;7.530;2023-08-08T02:37:54;13.70;99.90
13203;DHT22;6666;51.626;7.530;2023-08-08T02:40:23;13.70;99.90
13203;DHT22;6666;51.626;7.530;2023-08-08T02:42:51;13.70;99.90
13203;DHT22;6666;51.626;7.530;2023-08-08T02:45:19;13.70;99.90
13203;DHT22;6666;51.626;7.530;2023-08-08T02:47:48;13.70;99.90
13203;DHT22;6666;51.626;7.530;2023-08-08T02:50:17;13.70;99.90
13203;DHT22;6666;51.626;7.530;2023-08-08T02:52:46;13.70;99.90
13203;DHT22;6666;51.626;7.530;2023-08-08T02:55:14;13.70;99.90
13203;DHT22;6666;51.626;7.530;2023-08-08T02:57:46;13.70;99.90
13203;DHT22;6666;51.626;7.530;2023-08-08T03:00:15;13.70;99.90
13203;DHT22;6666;51.626;7.530;2023-08-08T03:02:48;13.80;99.90
13203;DHT22;6666;51.626;7.530;2023-08-08T03:05:18;13.80;99.90
13203;DHT22;6666;51.626;7.530;2023-08-08T03:07:48;13.80;99.90
13203;DHT22;6666;51.626;7.530;2023-08-08T03:10:17;13.80;99.90
13203;DHT22;6666;51.626;7.530;2023-08-08T03:12:45;13.90;99.90
13203;DHT22;6666;51.626;7.530;2023-08-08T03:15:14;13.90;99.90
13203;DHT22;6666;51.626;7.530;2023-08-08T03:17:42;13.90;99.90
13203;DHT22;6666;51.626;7.530;2023-08-08T03:20:11;13.90;99.90
13203;DHT22;6666;51.626;7.530;2023-08-08T03:22:41;13.80;99.90
13203;DHT22;6666;51.626;7.530;2023-08-08T03:25:09;13.80;99.90
13203;DHT22;6666;51.626;7.530;2023-08-08T03:27:37;13.80;99.90
13203;DHT22;6666;51.626;7.530;2023-08-08T03:30:08;13.70;99.90
13203;DHT22;6666;51.626;7.530;2023-08-08T03:32:41;13.80;99.90
13203;DHT22;6666;51.626;7.530;2023-08-08T03:35:09;13.80;99.90
13203;DHT22;6666;51.626;7.530;2023-08-08T03:37:41;13.70;99.90
13203;DHT22;6666;51.626;7.530;2023-08-08T03:40:10;13.70;99.90
13203;DHT22;6666;51.626;7.530;2023-08-08T03:42:39;13.70;99.90
13203;DHT22;6666;51.626;7.530;2023-08-08T03:45:08;13.70;99.90
13203;DHT22;6666;51.626;7.530;2023-08-08T03:47:37;13.80;99.90
13203;DHT22;6666;51.626;7.530;2023-08-08T03:50:06;13.70;99.90
13203;DHT22;6666;51.626;7.530;2023-08-08T03:52:37;13.70;99.90
13203;DHT22;6666;51.626;7.530;2023-08-08T03:55:11;13.70;99.90
13203;DHT22;6666;51.626;7.530;2023-08-08T03:57:40;13.70;99.90
13203;DHT22;6666;51.626;7.530;2023-08-08T04:00:09;13.60;99.90
13203;DHT22;6666;51.626;7.530;2023-08-08T04:02:41;13.60;99.90
13203;DHT22;6666;51.626;7.530;2023-08-08T04:05:09;13.60;99.90
13203;DHT22;6666;51.626;7.530;2023-08-08T04:07:39;13.60;99.90
13203;DHT22;6666;51.626;7.530;2023-08-08T04:10:08;13.50;99.90
13203;DHT22;6666;51.626;7.530;2023-08-08T04:12:37;13.50;99.90
13203;DHT22;6666;51.626;7.530;2023-08-08T04:15:06;13.50;99.90
13203;DHT22;6666;51.626;7.530;2023-08-08T04:17:35;13.50;99.90
13203;DHT22;6666;51.626;7.530;2023-08-08T04:20:05;13.60;99.90
13203;DHT22;6666;51.626;7.530;2023-08-08T04:22:33;13.60;99.90
13203;DHT22;6666;51.626;7.530;2023-08-08T04:25:04;13.60;99.90
13203;DHT22;6666;51.626;7.530;2023-08-08T04:27:32;13.60;99.90
13203;DHT22;6666;51.626;7.530;2023-08-08T04:30:02;13.50;99.90
13203;DHT22;6666;51.626;7.530;2023-08-08T04:32:31;13.60;99.90
13203;DHT22;6666;51.626;7.530;2023-08-08T04:34:59;13.60;99.90
13203;DHT22;6666;51.626;7.530;2023-08-08T04:37:27;13.50;99.90
13203;DHT22;6666;51.626;7.530;2023-08-08T04:39:55;13.60;99.90
13203;DHT22;6666;51.626;7.530;2023-08-08T04:42:23;13.60;99.90
13203;DHT22;6666;51.626;7.530;2023-08-08T04:44:52;13.60;99.90
13203;DHT22;6666;51.626;7.530;2023-08-08T04:47:21;13.60;99.90
13203;DHT22;6666;51.626;7.530;2023-08-08T04:49:49;13.70;99.90
13203;DHT22;6666;51.626;7.530;2023-08-08T04:52:18;13.80;99.90
13203;DHT22;6666;51.626;7.530;2023-08-08T04:54:46;13.80;99.90
13203;DHT22;6666;51.626;7.530;2023-08-08T04:57:14;13.80;99.90
13203;DHT22;6666;51.626;7.530;2023-08-08T04:59:42;13.80;99.90
13203;DHT22;6666;51.626;7.530;2023-08-08T05:02:10;13.80;99.90
13203;DHT22;6666;51.626;7.530;2023-08-08T05:04:40;13.90;99.90
13203;DHT22;6666;51.626;7.530;2023-08-08T05:07:08;13.80;99.90
13203;DHT22;6666;51.626;7.530;2023-08-08T05:09:36;13.90;99.90
13203;DHT22;6666;51.626;7.530;2023-08-08T05:12:05;13.90;99.90
13203;DHT22;6666;51.626;7.530;2023-08-08T05:14:33;13.90;99.90
13203;DHT22;6666;51.626;7.530;2023-08-08T05:17:02;13.90;99.90
13203;DHT22;6666;51.626;7.530;2023-08-08T05:19:30;13.90;99.90
13203;DHT22;6666;51.626;7.530;2023-08-08T05:22:00;14.00;99.90
13203;DHT22;6666;51.626;7.530;2023-08-08T05:24:28;14.00;99.90
13203;DHT22;6666;51.626;7.530;2023-08-08T05:26:56;14.10;99.90
13203;DHT22;6666;51.626;7.530;2023-08-08T05:29:24;14.10;99.90
13203;DHT22;6666;51.626;7.530;2023-08-08T05:31:53;14.10;99.90
13203;DHT22;6666;51.626;7.530;2023-08-08T05:34:23;14.20;99.90
13203;DHT22;6666;51.626;7.530;2023-08-08T05:36:51;14.20;99.90
13203;DHT22;6666;51.626;7.530;2023-08-08T05:39:41;14.30;99.90
13203;DHT22;6666;51.626;7.530;2023-08-08T05:42:09;14.30;99.90
13203;DHT22;6666;51.626;7.530;2023-08-08T05:44:37;14.30;99.90
13203;DHT22;6666;51.626;7.530;2023-08-08T05:47:06;14.20;99.90
13203;DHT22;6666;51.626;7.530;2023-08-08T05:49:34;14.20;99.90
13203;DHT22;6666;51.626;7.530;2023-08-08T05:52:03;14.30;99.90
13203;DHT22;6666;51.626;7.530;2023-08-08T05:54:31;14.30;99.90
13203;DHT22;6666;51.626;7.530;2023-08-08T05:57:01;14.30;99.90
13203;DHT22;6666;51.626;7.530;2023-08-08T05:59:29;14.30;99.90
13203;DHT22;6666;51.626;7.530;2023-08-08T06:01:58;14.40;99.90
13203;DHT22;6666;51.626;7.530;2023-08-08T06:04:27;14.50;99.90
13203;DHT22;6666;51.626;7.530;2023-08-08T06:06:55;14.50;99.90
13203;DHT22;6666;51.626;7.530;2023-08-08T06:09:24;14.50;99.90
13203;DHT22;6666;51.626;7.530;2023-08-08T06:11:52;14.60;99.90
13203;DHT22;6666;51.626;7.530;2023-08-08T06:14:22;14.60;99.90
13203;DHT22;6666;51.626;7.530;2023-08-08T06:16:50;14.60;99.90
13203;DHT22;6666;51.626;7.530;2023-08-08T06:19:18;14.60;99.90
13203;DHT22;6666;51.626;7.530;2023-08-08T06:21:46;14.70;99.90
13203;DHT22;6666;51.626;7.530;2023-08-08T06:24:15;14.80;99.90
13203;DHT22;6666;51.626;7.530;2023-08-08T06:26:43;14.70;99.90
13203;DHT22;6666;51.626;7.530;2023-08-08T06:29:12;14.70;99.90
13203;DHT22;6666;51.626;7.530;2023-08-08T06:31:42;14.70;99.90
13203;DHT22;6666;51.626;7.530;2023-08-08T06:34:10;14.70;99.90
13203;DHT22;6666;51.626;7.530;2023-08-08T06:36:38;14.70;99.90
13203;DHT22;6666;51.626;7.530;2023-08-08T06:39:07;14.70;99.90
13203;DHT22;6666;51.626;7.530;2023-08-08T06:41:35;14.70;99.90
13203;DHT22;6666;51.626;7.530;2023-08-08T06:44:06;14.70;99.90
13203;DHT22;6666;51.626;7.530;2023-08-08T06:46:35;14.80;99.90
13203;DHT22;6666;51.626;7.530;2023-08-08T06:49:04;14.80;99.90
13203;DHT22;6666;51.626;7.530;2023-08-08T06:51:33;14.80;99.90
13203;DHT22;6666;51.626;7.530;2023-08-08T06:54:02;14.90;99.90
13203;DHT22;6666;51.626;7.530;2023-08-08T06:56:30;15.00;99.90
13203;DHT22;6666;51.626;7.530;2023-08-08T06:58:58;15.10;99.90
13203;DHT22;6666;51.626;7.530;2023-08-08T07:01:26;15.20;99.90
13203;DHT22;6666;51.626;7.530;2023-08-08T07:03:54;15.30;99.90
13203;DHT22;6666;51.626;7.530;2023-08-08T07:06:24;15.50;99.90
13203;DHT22;6666;51.626;7.530;2023-08-08T07:08:52;15.50;99.90
13203;DHT22;6666;51.626;7.530;2023-08-08T07:11:20;15.50;99.90
13203;DHT22;6666;51.626;7.530;2023-08-08T07:13:49;15.50;99.90
13203;DHT22;6666;51.626;7.530;2023-08-08T07:16:17;15.40;99.90
13203;DHT22;6666;51.626;7.530;2023-08-08T07:18:45;15.40;99.90
13203;DHT22;6666;51.626;7.530;2023-08-08T07:21:16;15.30;99.90
13203;DHT22;6666;51.626;7.530;2023-08-08T07:23:45;15.50;99.90
13203;DHT22;6666;51.626;7.530;2023-08-08T07:26:14;15.80;99.90
13203;DHT22;6666;51.626;7.530;2023-08-08T07:28:42;15.70;99.90
13203;DHT22;6666;51.626;7.530;2023-08-08T07:31:10;15.90;99.90
13203;DHT22;6666;51.626;7.530;2023-08-08T07:33:38;16.20;99.90
13203;DHT22;6666;51.626;7.530;2023-08-08T07:36:06;16.40;99.90
13203;DHT22;6666;51.626;7.530;2023-08-08T07:38:34;16.40;99.90
13203;DHT22;6666;51.626;7.530;2023-08-08T07:41:04;16.40;99.90
13203;DHT22;6666;51.626;7.530;2023-08-08T07:43:33;16.20;99.90
13203;DHT22;6666;51.626;7.530;2023-08-08T07:46:01;16.20;99.90
13203;DHT22;6666;51.626;7.530;2023-08-08T07:48:30;16.30;99.90
13203;DHT22;6666;51.626;7.530;2023-08-08T07:50:58;16.30;99.90
13203;DHT22;6666;51.626;7.530;2023-08-08T07:53:26;16.50;99.90
13203;DHT22;6666;51.626;7.530;2023-08-08T07:55:54;16.70;99.90
13203;DHT22;6666;51.626;7.530;2023-08-08T07:58:24;17.10;99.90
13203;DHT22;6666;51.626;7.530;2023-08-08T08:00:54;17.30;99.90
13203;DHT22;6666;51.626;7.530;2023-08-08T08:03:22;17.10;99.90
13203;DHT22;6666;51.626;7.530;2023-08-08T08:05:50;17.20;99.90
13203;DHT22;6666;51.626;7.530;2023-08-08T08:08:19;17.20;99.90
13203;DHT22;6666;51.626;7.530;2023-08-08T08:10:48;17.30;99.90
13203;DHT22;6666;51.626;7.530;2023-08-08T08:13:17;17.40;99.90
13203;DHT22;6666;51.626;7.530;2023-08-08T08:15:47;17.30;99.90
13203;DHT22;6666;51.626;7.530;2023-08-08T08:18:15;17.30;99.90
13203;DHT22;6666;51.626;7.530;2023-08-08T08:20:45;17.70;99.90
13203;DHT22;6666;51.626;7.530;2023-08-08T08:23:13;17.70;99.90
13203;DHT22;6666;51.626;7.530;2023-08-08T08:25:42;17.80;99.90
13203;DHT22;6666;51.626;7.530;2023-08-08T08:28:10;17.80;99.90
13203;DHT22;6666;51.626;7.530;2023-08-08T08:30:38;18.10;99.90
13203;DHT22;6666;51.626;7.530;2023-08-08T08:33:08;18.00;99.90
13203;DHT22;6666;51.626;7.530;2023-08-08T08:35:36;18.20;99.90
13203;DHT22;6666;51.626;7.530;2023-08-08T08:38:04;18.20;99.90
13203;DHT22;6666;51.626;7.530;2023-08-08T08:40:36;18.50;99.90
13203;DHT22;6666;51.626;7.530;2023-08-08T08:43:07;18.60;99.90
13203;DHT22;6666;51.626;7.530;2023-08-08T08:45:37;18.20;99.90
13203;DHT22;6666;51.626;7.530;2023-08-08T08:48:09;17.90;99.90
13203;DHT22;6666;51.626;7.530;2023-08-08T08:50:39;17.80;99.90
13203;DHT22;6666;51.626;7.530;2023-08-08T08:53:07;17.70;99.90
13203;DHT22;6666;51.626;7.530;2023-08-08T08:55:35;17.60;99.90
13203;DHT22;6666;51.626;7.530;2023-08-08T08:58:04;17.30;99.90
13203;DHT22;6666;51.626;7.530;2023-08-08T09:00:33;17.30;99.90
13203;DHT22;6666;51.626;7.530;2023-08-08T09:03:03;17.60;99.90
13203;DHT22;6666;51.626;7.530;2023-08-08T09:05:33;17.70;99.90
13203;DHT22;6666;51.626;7.530;2023-08-08T09:08:02;17.70;99.90
13203;DHT22;6666;51.626;7.530;2023-08-08T09:10:30;17.80;99.90
13203;DHT22;6666;51.626;7.530;2023-08-08T09:12:59;18.00;99.90
13203;DHT22;6666;51.626;7.530;2023-08-08T09:15:30;18.20;99.90
13203;DHT22;6666;51.626;7.530;2023-08-08T09:17:58;18.50;99.90
13203;DHT22;6666;51.626;7.530;2023-08-08T09:20:27;18.80;99.90
13203;DHT22;6666;51.626;7.530;2023-08-08T09:22:57;19.00;99.90
13203;DHT22;6666;51.626;7.530;2023-08-08T09:25:26;18.80;99.90
13203;DHT22;6666;51.626;7.530;2023-08-08T09:27:55;18.50;99.90
13203;DHT22;6666;51.626;7.530;2023-08-08T09:30:23;18.20;99.90
13203;DHT22;6666;51.626;7.530;2023-08-08T09:32:51;18.10;99.90
13203;DHT22;6666;51.626;7.530;2023-08-08T09:35:23;17.90;99.90
13203;DHT22;6666;51.626;7.530;2023-08-08T09:37:53;18.10;99.90
13203;DHT22;6666;51.626;7.530;2023-08-08T09:40:23;18.50;99.90
13203;DHT22;6666;51.626;7.530;2023-08-08T09:42:51;18.60;99.90
13203;DHT22;6666;51.626;7.530;2023-08-08T09:45:20;18.30;99.90
13203;DHT22;6666;51.626;7.530;2023-08-08T09:47:50;18.00;99.90
13203;DHT22;6666;51.626;7.530;2023-08-08T09:50:19;17.80;99.90
13203;DHT22;6666;51.626;7.530;2023-08-08T09:52:47;17.80;99.90
13203;DHT22;6666;51.626;7.530;2023-08-08T09:55:16;18.00;99.90
13203;DHT22;6666;51.626;7.530;2023-08-08T09:57:47;18.10;99.90
13203;DHT22;6666;51.626;7.530;2023-08-08T10:00:16;18.20;99.90
13203;DHT22;6666;51.626;7.530;2023-08-08T10:02:47;17.70;99.90
13203;DHT22;6666;51.626;7.530;2023-08-08T10:05:16;17.60;99.90
13203;DHT22;6666;51.626;7.530;2023-08-08T10:07:44;17.50;99.90
13203;DHT22;6666;51.626;7.530;2023-08-08T10:10:13;17.40;99.90
13203;DHT22;6666;51.626;7.530;2023-08-08T10:12:41;17.60;99.90
13203;DHT22;6666;51.626;7.530;2023-08-08T10:15:11;17.90;99.90
13203;DHT22;6666;51.626;7.530;2023-08-08T10:17:40;18.00;99.90
13203;DHT22;6666;51.626;7.530;2023-08-08T10:20:10;18.00;99.90
13203;DHT22;6666;51.626;7.530;2023-08-08T10:22:43;17.80;99.90
13203;DHT22;6666;51.626;7.530;2023-08-08T10:25:20;17.70;99.90
13203;DHT22;6666;51.626;7.530;2023-08-08T10:28:01;17.60;99.90
13203;DHT22;6666;51.626;7.530;2023-08-08T10:30:48;17.50;99.90
13203;DHT22;6666;51.626;7.530;2023-08-08T10:33:20;17.60;99.90
13203;DHT22;6666;51.626;7.530;2023-08-08T10:35:59;17.60;99.90
13203;DHT22;6666;51.626;7.530;2023-08-08T10:38:40;17.70;99.90
13203;DHT22;6666;51.626;7.530;2023-08-08T10:41:13;17.80;99.90
13203;DHT22;6666;51.626;7.530;2023-08-08T10:43:48;17.60;99.90
13203;DHT22;6666;51.626;7.530;2023-08-08T10:46:24;17.50;99.90
13203;DHT22;6666;51.626;7.530;2023-08-08T10:48:54;17.40;99.90
13203;DHT22;6666;51.626;7.530;2023-08-08T10:51:22;17.20;99.90
13203;DHT22;6666;51.626;7.530;2023-08-08T10:53:51;17.10;99.90
13203;DHT22;6666;51.626;7.530;2023-08-08T10:56:20;17.00;99.90
13203;DHT22;6666;51.626;7.530;2023-08-08T10:58:50;17.00;99.90
13203;DHT22;6666;51.626;7.530;2023-08-08T11:01:18;17.10;99.90
13203;DHT22;6666;51.626;7.530;2023-08-08T11:03:48;17.50;99.90
13203;DHT22;6666;51.626;7.530;2023-08-08T11:06:19;17.60;99.90
13203;DHT22;6666;51.626;7.530;2023-08-08T11:08:47;17.60;99.90
13203;DHT22;6666;51.626;7.530;2023-08-08T11:11:16;17.70;99.90
13203;DHT22;6666;51.626;7.530;2023-08-08T11:13:45;17.40;99.90
13203;DHT22;6666;51.626;7.530;2023-08-08T11:16:14;17.30;99.90
13203;DHT22;6666;51.626;7.530;2023-08-08T11:18:43;17.30;99.90
13203;DHT22;6666;51.626;7.530;2023-08-08T11:21:12;17.20;99.90
13203;DHT22;6666;51.626;7.530;2023-08-08T11:23:46;17.00;99.90
13203;DHT22;6666;51.626;7.530;2023-08-08T11:26:17;17.10;99.90
13203;DHT22;6666;51.626;7.530;2023-08-08T11:28:49;17.30;99.90
13203;DHT22;6666;51.626;7.530;2023-08-08T11:31:18;17.50;99.90
13203;DHT22;6666;51.626;7.530;2023-08-08T11:33:47;17.60;99.90
13203;DHT22;6666;51.626;7.530;2023-08-08T11:36:17;17.80;99.90
13203;DHT22;6666;51.626;7.530;2023-08-08T11:38:46;18.20;99.90
13203;DHT22;6666;51.626;7.530;2023-08-08T11:41:16;18.40;99.90
13203;DHT22;6666;51.626;7.530;2023-08-08T11:43:45;18.40;99.90
13203;DHT22;6666;51.626;7.530;2023-08-08T11:46:14;18.50;99.90
13203;DHT22;6666;51.626;7.530;2023-08-08T11:48:45;18.60;99.90
13203;DHT22;6666;51.626;7.530;2023-08-08T11:51:16;18.70;99.90
13203;DHT22;6666;51.626;7.530;2023-08-08T11:53:51;18.80;99.90
13203;DHT22;6666;51.626;7.530;2023-08-08T11:56:20;18.70;99.90
13203;DHT22;6666;51.626;7.530;2023-08-08T11:58:50;18.50;99.90
13203;DHT22;6666;51.626;7.530;2023-08-08T12:01:20;18.20;99.90
13203;DHT22;6666;51.626;7.530;2023-08-08T12:03:48;18.20;99.90
13203;DHT22;6666;51.626;7.530;2023-08-08T12:06:18;18.20;99.90
13203;DHT22;6666;51.626;7.530;2023-08-08T12:08:47;18.20;99.90
13203;DHT22;6666;51.626;7.530;2023-08-08T12:11:17;18.10;99.90
13203;DHT22;6666;51.626;7.530;2023-08-08T12:13:57;18.20;99.90
13203;DHT22;6666;51.626;7.530;2023-08-08T12:16:28;18.20;99.90
13203;DHT22;6666;51.626;7.530;2023-08-08T12:19:01;18.40;99.90
13203;DHT22;6666;51.626;7.530;2023-08-08T12:21:31;18.70;99.90
13203;DHT22;6666;51.626;7.530;2023-08-08T12:24:00;18.80;99.90
13203;DHT22;6666;51.626;7.530;2023-08-08T12:26:28;19.10;99.90
13203;DHT22;6666;51.626;7.530;2023-08-08T12:28:56;19.30;99.90
13203;DHT22;6666;51.626;7.530;2023-08-08T12:31:25;19.30;99.90
13203;DHT22;6666;51.626;7.530;2023-08-08T12:33:53;19.70;99.90
13203;DHT22;6666;51.626;7.530;2023-08-08T12:36:21;19.70;99.90
13203;DHT22;6666;51.626;7.530;2023-08-08T12:38:51;19.70;99.90
13203;DHT22;6666;51.626;7.530;2023-08-08T12:41:19;19.50;99.90
13203;DHT22;6666;51.626;7.530;2023-08-08T12:43:47;19.50;99.90
13203;DHT22;6666;51.626;7.530;2023-08-08T12:46:16;19.50;99.90
13203;DHT22;6666;51.626;7.530;2023-08-08T12:48:44;19.60;99.90
13203;DHT22;6666;51.626;7.530;2023-08-08T12:51:13;19.60;99.90
13203;DHT22;6666;51.626;7.530;2023-08-08T12:53:42;19.30;99.90
13203;DHT22;6666;51.626;7.530;2023-08-08T12:56:12;19.20;99.90
13203;DHT22;6666;51.626;7.530;2023-08-08T12:58:40;19.20;99.90
13203;DHT22;6666;51.626;7.530;2023-08-08T13:01:08;19.40;99.90
13203;DHT22;6666;51.626;7.530;2023-08-08T13:03:37;19.90;99.90
13203;DHT22;6666;51.626;7.530;2023-08-08T13:06:11;20.00;99.90
13203;DHT22;6666;51.626;7.530;2023-08-08T13:08:40;19.90;99.90
13203;DHT22;6666;51.626;7.530;2023-08-08T13:11:08;19.90;99.90
13203;DHT22;6666;51.626;7.530;2023-08-08T13:13:38;19.80;99.90
13203;DHT22;6666;51.626;7.530;2023-08-08T13:16:06;19.70;99.90
13203;DHT22;6666;51.626;7.530;2023-08-08T13:18:34;19.60;99.90
13203;DHT22;6666;51.626;7.530;2023-08-08T13:21:02;19.60;99.90
13203;DHT22;6666;51.626;7.530;2023-08-08T13:23:33;19.60;99.90
13203;DHT22;6666;51.626;7.530;2023-08-08T13:26:01;20.00;99.90
13203;DHT22;6666;51.626;7.530;2023-08-08T13:28:30;20.30;99.90
13203;DHT22;6666;51.626;7.530;2023-08-08T13:30:59;20.50;99.90
13203;DHT22;6666;51.626;7.530;2023-08-08T13:33:28;20.50;99.90
13203;DHT22;6666;51.626;7.530;2023-08-08T13:35:56;20.40;99.90
13203;DHT22;6666;51.626;7.530;2023-08-08T13:38:24;20.10;99.90
13203;DHT22;6666;51.626;7.530;2023-08-08T13:40:52;20.20;99.90
13203;DHT22;6666;51.626;7.530;2023-08-08T13:43:21;20.50;99.90
13203;DHT22;6666;51.626;7.530;2023-08-08T13:45:50;20.50;99.90
13203;DHT22;6666;51.626;7.530;2023-08-08T13:48:20;20.60;99.90
13203;DHT22;6666;51.626;7.530;2023-08-08T13:50:49;20.60;99.90
13203;DHT22;6666;51.626;7.530;2023-08-08T13:53:17;20.70;99.90
13203;DHT22;6666;51.626;7.530;2023-08-08T13:55:45;20.70;99.90
13203;DHT22;6666;51.626;7.530;2023-08-08T13:58:13;20.70;99.90
13203;DHT22;6666;51.626;7.530;2023-08-08T14:00:42;20.80;99.90
13203;DHT22;6666;51.626;7.530;2023-08-08T14:03:10;20.70;99.90
13203;DHT22;6666;51.626;7.530;2023-08-08T14:05:42;20.50;99.90
13203;DHT22;6666;51.626;7.530;2023-08-08T14:08:10;20.20;99.90
13203;DHT22;6666;51.626;7.530;2023-08-08T14:10:38;20.10;99.90
13203;DHT22;6666;51.626;7.530;2023-08-08T14:13:06;19.70;99.90
13203;DHT22;6666;51.626;7.530;2023-08-08T14:15:35;19.80;99.90
13203;DHT22;6666;51.626;7.530;2023-08-08T14:18:06;20.00;99.90
13203;DHT22;6666;51.626;7.530;2023-08-08T14:20:35;20.20;99.90
13203;DHT22;6666;51.626;7.530;2023-08-08T14:23:04;20.20;99.90
13203;DHT22;6666;51.626;7.530;2023-08-08T14:25:33;20.50;99.90
13203;DHT22;6666;51.626;7.530;2023-08-08T14:28:01;20.60;99.90
13203;DHT22;6666;51.626;7.530;2023-08-08T14:30:31;20.50;99.90
13203;DHT22;6666;51.626;7.530;2023-08-08T14:32:59;20.40;99.90
13203;DHT22;6666;51.626;7.530;2023-08-08T14:35:27;20.20;99.90
13203;DHT22;6666;51.626;7.530;2023-08-08T14:37:55;20.20;99.90
13203;DHT22;6666;51.626;7.530;2023-08-08T14:40:25;20.30;99.90
13203;DHT22;6666;51.626;7.530;2023-08-08T14:42:53;20.20;99.90
13203;DHT22;6666;51.626;7.530;2023-08-08T14:45:22;20.20;99.90
13203;DHT22;6666;51.626;7.530;2023-08-08T14:47:51;20.10;99.90
13203;DHT22;6666;51.626;7.530;2023-08-08T14:50:19;19.90;99.90
13203;DHT22;6666;51.626;7.530;2023-08-08T14:52:47;19.80;99.90
13203;DHT22;6666;51.626;7.530;2023-08-08T14:55:15;19.80;99.90
13203;DHT22;6666;51.626;7.530;2023-08-08T14:57:45;19.80;99.90
13203;DHT22;6666;51.626;7.530;2023-08-08T15:00:13;19.90;99.90
13203;DHT22;6666;51.626;7.530;2023-08-08T15:02:42;19.90;99.90
13203;DHT22;6666;51.626;7.530;2023-08-08T15:05:10;19.80;99.90
13203;DHT22;6666;51.626;7.530;2023-08-08T15:07:38;19.70;99.90
13203;DHT22;6666;51.626;7.530;2023-08-08T15:10:07;19.70;99.90
13203;DHT22;6666;51.626;7.530;2023-08-08T15:12:36;19.40;99.90
13203;DHT22;6666;51.626;7.530;2023-08-08T15:15:07;19.40;99.90
13203;DHT22;6666;51.626;7.530;2023-08-08T15:17:35;19.20;99.90
13203;DHT22;6666;51.626;7.530;2023-08-08T15:20:04;19.30;99.90
13203;DHT22;6666;51.626;7.530;2023-08-08T15:22:33;19.40;99.90
13203;DHT22;6666;51.626;7.530;2023-08-08T15:25:01;19.40;99.90
13203;DHT22;6666;51.626;7.530;2023-08-08T15:27:29;19.40;99.90
13203;DHT22;6666;51.626;7.530;2023-08-08T15:29:57;19.50;99.90
13203;DHT22;6666;51.626;7.530;2023-08-08T15:32:27;19.50;99.90
13203;DHT22;6666;51.626;7.530;2023-08-08T15:34:55;19.50;99.90
13203;DHT22;6666;51.626;7.530;2023-08-08T15:37:23;19.50;99.90
13203;DHT22;6666;51.626;7.530;2023-08-08T15:39:52;19.70;99.90
13203;DHT22;6666;51.626;7.530;2023-08-08T15:42:20;19.70;99.90
13203;DHT22;6666;51.626;7.530;2023-08-08T15:44:48;19.70;99.90
13203;DHT22;6666;51.626;7.530;2023-08-08T15:47:17;19.60;99.90
13203;DHT22;6666;51.626;7.530;2023-08-08T15:49:46;19.70;99.90
13203;DHT22;6666;51.626;7.530;2023-08-08T15:52:15;19.70;99.90
13203;DHT22;6666;51.626;7.530;2023-08-08T15:54:43;19.70;99.90
13203;DHT22;6666;51.626;7.530;2023-08-08T15:57:11;19.90;99.90
13203;DHT22;6666;51.626;7.530;2023-08-08T15:59:39;19.90;99.90